Edgerton, Minnesota
Current Conditions -  °F | °C
As of 11:34 PM on Wednesday 22 Oct 2014 (Local Time) from KPQN Reporting Station
Haze Haze  
Wind Chill: 55°   Ceiling: 400
Heat Index: 55°   Visibility: 4mi
Dew Point: 54°   Wind: 8mph
Humidity: 94%   Direction: 240°WSW
Pressure: 30.01"   Gusts: NA
Location:  43.87°N, 96.13°W
Report Text: KPQN 230434Z AUTO 24007KT 4SM BR BKN004 OVC017 13/12 A3001 RMK AO2
Loading
Personal Weather Stations






























Interactive Weather Map New forecast layout! Learn more

10-Day Weather Forecast

Advertisements
Track Severe Weather on mobile